sensor_id;sensor_type;location;lat;lon;timestamp;P1;durP1;ratioP1;P2;durP2;ratioP2
9424;SDS011;17139;52.140;11.636;2024-02-21T00:01:50;5.23;;;3.00;;
9424;SDS011;17139;52.140;11.636;2024-02-21T00:04:16;8.67;;;3.30;;
9424;SDS011;17139;52.140;11.636;2024-02-21T00:06:41;6.67;;;3.40;;
9424;SDS011;17139;52.140;11.636;2024-02-21T00:09:09;5.30;;;3.23;;
9424;SDS011;17139;52.140;11.636;2024-02-21T00:11:34;4.13;;;2.77;;
9424;SDS011;17139;52.140;11.636;2024-02-21T00:14:00;12.53;;;3.53;;
9424;SDS011;17139;52.140;11.636;2024-02-21T00:16:26;7.80;;;3.10;;
9424;SDS011;17139;52.140;11.636;2024-02-21T00:18:52;6.53;;;3.20;;
9424;SDS011;17139;52.140;11.636;2024-02-21T00:21:17;8.47;;;3.73;;
9424;SDS011;17139;52.140;11.636;2024-02-21T00:23:43;5.70;;;2.60;;
9424;SDS011;17139;52.140;11.636;2024-02-21T00:26:11;6.13;;;3.40;;
9424;SDS011;17139;52.140;11.636;2024-02-21T00:28:37;5.33;;;3.77;;
9424;SDS011;17139;52.140;11.636;2024-02-21T00:31:03;5.47;;;3.37;;
9424;SDS011;17139;52.140;11.636;2024-02-21T00:33:28;6.67;;;4.00;;
9424;SDS011;17139;52.140;11.636;2024-02-21T00:35:54;5.90;;;3.50;;
9424;SDS011;17139;52.140;11.636;2024-02-21T00:38:20;4.10;;;3.00;;
9424;SDS011;17139;52.140;11.636;2024-02-21T00:40:46;9.17;;;3.97;;
9424;SDS011;17139;52.140;11.636;2024-02-21T00:43:13;8.82;;;4.15;;
9424;SDS011;17139;52.140;11.636;2024-02-21T00:45:39;6.13;;;3.37;;
9424;SDS011;17139;52.140;11.636;2024-02-21T00:48:05;7.47;;;3.57;;
9424;SDS011;17139;52.140;11.636;2024-02-21T00:50:31;8.77;;;3.33;;
9424;SDS011;17139;52.140;11.636;2024-02-21T00:52:57;5.57;;;3.17;;
9424;SDS011;17139;52.140;11.636;2024-02-21T00:55:22;5.43;;;3.47;;
9424;SDS011;17139;52.140;11.636;2024-02-21T00:57:48;6.87;;;3.90;;
9424;SDS011;17139;52.140;11.636;2024-02-21T01:00:16;7.53;;;3.60;;
9424;SDS011;17139;52.140;11.636;2024-02-21T01:02:42;5.47;;;3.67;;
9424;SDS011;17139;52.140;11.636;2024-02-21T01:05:08;13.23;;;3.60;;
9424;SDS011;17139;52.140;11.636;2024-02-21T01:07:34;5.67;;;2.97;;
9424;SDS011;17139;52.140;11.636;2024-02-21T01:10:00;3.10;;;2.80;;
9424;SDS011;17139;52.140;11.636;2024-02-21T01:12:26;3.87;;;3.10;;
9424;SDS011;17139;52.140;11.636;2024-02-21T01:14:51;3.53;;;3.23;;
9424;SDS011;17139;52.140;11.636;2024-02-21T01:17:18;4.33;;;3.50;;
9424;SDS011;17139;52.140;11.636;2024-02-21T01:19:45;7.90;;;3.70;;
9424;SDS011;17139;52.140;11.636;2024-02-21T01:22:11;7.40;;;3.53;;
9424;SDS011;17139;52.140;11.636;2024-02-21T01:24:37;10.40;;;4.70;;
9424;SDS011;17139;52.140;11.636;2024-02-21T01:27:03;11.13;;;4.17;;
9424;SDS011;17139;52.140;11.636;2024-02-21T01:29:29;8.03;;;3.73;;
9424;SDS011;17139;52.140;11.636;2024-02-21T01:31:55;9.57;;;4.70;;
9424;SDS011;17139;52.140;11.636;2024-02-21T01:34:22;6.10;;;3.23;;
9424;SDS011;17139;52.140;11.636;2024-02-21T01:36:48;6.77;;;3.60;;
9424;SDS011;17139;52.140;11.636;2024-02-21T01:39:13;7.03;;;3.50;;
9424;SDS011;17139;52.140;11.636;2024-02-21T01:41:39;9.47;;;3.53;;
9424;SDS011;17139;52.140;11.636;2024-02-21T01:44:05;5.30;;;3.70;;
9424;SDS011;17139;52.140;11.636;2024-02-21T01:46:31;7.13;;;4.00;;
9424;SDS011;17139;52.140;11.636;2024-02-21T01:48:57;6.57;;;4.00;;
9424;SDS011;17139;52.140;11.636;2024-02-21T01:51:24;7.90;;;3.70;;
9424;SDS011;17139;52.140;11.636;2024-02-21T01:53:50;6.70;;;3.53;;
9424;SDS011;17139;52.140;11.636;2024-02-21T01:56:18;8.60;;;4.17;;
9424;SDS011;17139;52.140;11.636;2024-02-21T01:58:44;5.27;;;3.47;;
9424;SDS011;17139;52.140;11.636;2024-02-21T02:01:12;7.30;;;3.77;;
9424;SDS011;17139;52.140;11.636;2024-02-21T02:03:38;15.63;;;4.73;;
9424;SDS011;17139;52.140;11.636;2024-02-21T02:06:04;7.37;;;4.23;;
9424;SDS011;17139;52.140;11.636;2024-02-21T02:08:32;11.77;;;4.30;;
9424;SDS011;17139;52.140;11.636;2024-02-21T02:10:58;12.43;;;5.37;;
9424;SDS011;17139;52.140;11.636;2024-02-21T02:13:25;5.37;;;4.10;;
9424;SDS011;17139;52.140;11.636;2024-02-21T02:15:50;5.17;;;4.07;;
9424;SDS011;17139;52.140;11.636;2024-02-21T02:18:17;5.93;;;4.65;;
9424;SDS011;17139;52.140;11.636;2024-02-21T02:20:44;5.33;;;3.70;;
9424;SDS011;17139;52.140;11.636;2024-02-21T02:23:12;6.43;;;3.80;;
9424;SDS011;17139;52.140;11.636;2024-02-21T02:25:44;10.47;;;4.20;;
9424;SDS011;17139;52.140;11.636;2024-02-21T02:28:11;7.20;;;3.87;;
9424;SDS011;17139;52.140;11.636;2024-02-21T02:30:36;9.27;;;4.27;;
9424;SDS011;17139;52.140;11.636;2024-02-21T02:33:03;4.70;;;3.80;;
9424;SDS011;17139;52.140;11.636;2024-02-21T02:35:29;12.07;;;4.37;;
9424;SDS011;17139;52.140;11.636;2024-02-21T02:37:54;6.90;;;4.13;;
9424;SDS011;17139;52.140;11.636;2024-02-21T02:40:22;4.47;;;4.00;;
9424;SDS011;17139;52.140;11.636;2024-02-21T02:42:48;6.40;;;3.77;;
9424;SDS011;17139;52.140;11.636;2024-02-21T02:45:14;6.30;;;4.00;;
9424;SDS011;17139;52.140;11.636;2024-02-21T02:47:40;6.60;;;4.27;;
9424;SDS011;17139;52.140;11.636;2024-02-21T02:50:06;6.13;;;4.07;;
9424;SDS011;17139;52.140;11.636;2024-02-21T02:52:33;7.73;;;4.77;;
9424;SDS011;17139;52.140;11.636;2024-02-21T02:54:59;4.60;;;4.10;;
9424;SDS011;17139;52.140;11.636;2024-02-21T02:57:26;8.15;;;5.00;;
9424;SDS011;17139;52.140;11.636;2024-02-21T02:59:52;6.83;;;4.23;;
9424;SDS011;17139;52.140;11.636;2024-02-21T03:02:18;11.93;;;5.20;;
9424;SDS011;17139;52.140;11.636;2024-02-21T03:04:43;5.73;;;4.30;;
9424;SDS011;17139;52.140;11.636;2024-02-21T03:07:09;9.93;;;5.83;;
9424;SDS011;17139;52.140;11.636;2024-02-21T03:09:36;7.57;;;5.07;;
9424;SDS011;17139;52.140;11.636;2024-02-21T03:12:01;9.90;;;5.53;;
9424;SDS011;17139;52.140;11.636;2024-02-21T03:14:29;5.40;;;4.73;;
9424;SDS011;17139;52.140;11.636;2024-02-21T03:16:55;6.23;;;4.33;;
9424;SDS011;17139;52.140;11.636;2024-02-21T03:19:20;4.90;;;4.13;;
9424;SDS011;17139;52.140;11.636;2024-02-21T03:21:46;4.90;;;4.37;;
9424;SDS011;17139;52.140;11.636;2024-02-21T03:24:12;7.97;;;4.90;;
9424;SDS011;17139;52.140;11.636;2024-02-21T03:26:38;7.37;;;5.17;;
9424;SDS011;17139;52.140;11.636;2024-02-21T03:29:04;6.87;;;5.93;;
9424;SDS011;17139;52.140;11.636;2024-02-21T03:31:31;8.53;;;5.47;;
9424;SDS011;17139;52.140;11.636;2024-02-21T03:33:57;8.90;;;5.73;;
9424;SDS011;17139;52.140;11.636;2024-02-21T03:36:22;10.83;;;5.43;;
9424;SDS011;17139;52.140;11.636;2024-02-21T03:38:48;7.67;;;5.53;;
9424;SDS011;17139;52.140;11.636;2024-02-21T03:41:14;9.93;;;5.87;;
9424;SDS011;17139;52.140;11.636;2024-02-21T03:43:40;13.50;;;5.33;;
9424;SDS011;17139;52.140;11.636;2024-02-21T03:46:06;12.75;;;7.30;;
9424;SDS011;17139;52.140;11.636;2024-02-21T03:48:33;8.63;;;6.30;;
9424;SDS011;17139;52.140;11.636;2024-02-21T03:50:59;9.30;;;5.77;;
9424;SDS011;17139;52.140;11.636;2024-02-21T03:53:25;11.20;;;7.22;;
9424;SDS011;17139;52.140;11.636;2024-02-21T03:55:51;8.70;;;6.13;;
9424;SDS011;17139;52.140;11.636;2024-02-21T03:58:16;10.13;;;5.70;;
9424;SDS011;17139;52.140;11.636;2024-02-21T04:00:42;8.17;;;5.10;;
9424;SDS011;17139;52.140;11.636;2024-02-21T04:03:08;9.73;;;5.17;;
9424;SDS011;17139;52.140;11.636;2024-02-21T04:05:35;5.93;;;5.30;;
9424;SDS011;17139;52.140;11.636;2024-02-21T04:08:03;7.97;;;6.37;;
9424;SDS011;17139;52.140;11.636;2024-02-21T04:10:29;8.93;;;5.70;;
9424;SDS011;17139;52.140;11.636;2024-02-21T04:12:55;6.63;;;5.47;;
9424;SDS011;17139;52.140;11.636;2024-02-21T04:15:21;6.53;;;5.13;;
9424;SDS011;17139;52.140;11.636;2024-02-21T04:17:47;7.73;;;5.83;;
9424;SDS011;17139;52.140;11.636;2024-02-21T04:20:13;13.80;;;6.13;;
9424;SDS011;17139;52.140;11.636;2024-02-21T04:22:42;7.03;;;5.20;;
9424;SDS011;17139;52.140;11.636;2024-02-21T04:25:08;8.90;;;5.60;;
9424;SDS011;17139;52.140;11.636;2024-02-21T04:27:34;10.90;;;6.03;;
9424;SDS011;17139;52.140;11.636;2024-02-21T04:30:00;7.13;;;5.13;;
9424;SDS011;17139;52.140;11.636;2024-02-21T04:32:25;10.15;;;6.90;;
9424;SDS011;17139;52.140;11.636;2024-02-21T04:34:51;7.07;;;5.30;;
9424;SDS011;17139;52.140;11.636;2024-02-21T04:37:17;7.27;;;5.27;;
9424;SDS011;17139;52.140;11.636;2024-02-21T04:39:44;11.10;;;6.13;;
9424;SDS011;17139;52.140;11.636;2024-02-21T04:42:10;8.37;;;6.23;;
9424;SDS011;17139;52.140;11.636;2024-02-21T04:44:36;10.70;;;5.83;;
9424;SDS011;17139;52.140;11.636;2024-02-21T04:47:01;6.20;;;5.50;;
9424;SDS011;17139;52.140;11.636;2024-02-21T04:49:27;7.97;;;5.20;;
9424;SDS011;17139;52.140;11.636;2024-02-21T04:51:53;8.40;;;5.80;;
9424;SDS011;17139;52.140;11.636;2024-02-21T04:54:19;10.87;;;5.43;;
9424;SDS011;17139;52.140;11.636;2024-02-21T04:56:46;5.97;;;5.20;;
9424;SDS011;17139;52.140;11.636;2024-02-21T04:59:12;8.37;;;5.50;;
9424;SDS011;17139;52.140;11.636;2024-02-21T05:01:37;6.63;;;5.33;;
9424;SDS011;17139;52.140;11.636;2024-02-21T05:04:03;7.13;;;5.17;;
9424;SDS011;17139;52.140;11.636;2024-02-21T05:06:29;6.93;;;5.73;;
9424;SDS011;17139;52.140;11.636;2024-02-21T05:08:55;8.67;;;6.07;;
9424;SDS011;17139;52.140;11.636;2024-02-21T05:11:21;5.63;;;5.23;;
9424;SDS011;17139;52.140;11.636;2024-02-21T05:13:48;6.23;;;5.73;;
9424;SDS011;17139;52.140;11.636;2024-02-21T05:16:15;10.57;;;7.60;;
9424;SDS011;17139;52.140;11.636;2024-02-21T05:18:40;7.17;;;6.43;;
9424;SDS011;17139;52.140;11.636;2024-02-21T05:21:06;9.93;;;6.40;;
9424;SDS011;17139;52.140;11.636;2024-02-21T05:23:32;10.65;;;7.90;;
9424;SDS011;17139;52.140;11.636;2024-02-21T05:25:58;12.70;;;6.53;;
9424;SDS011;17139;52.140;11.636;2024-02-21T05:28:23;6.93;;;6.23;;
9424;SDS011;17139;52.140;11.636;2024-02-21T05:30:51;7.60;;;6.37;;
9424;SDS011;17139;52.140;11.636;2024-02-21T05:33:16;6.30;;;5.77;;
9424;SDS011;17139;52.140;11.636;2024-02-21T05:35:42;7.67;;;5.93;;
9424;SDS011;17139;52.140;11.636;2024-02-21T05:38:09;8.37;;;6.17;;
9424;SDS011;17139;52.140;11.636;2024-02-21T05:40:35;9.57;;;6.10;;
9424;SDS011;17139;52.140;11.636;2024-02-21T05:43:01;6.07;;;5.57;;
9424;SDS011;17139;52.140;11.636;2024-02-21T05:45:27;8.43;;;7.60;;
9424;SDS011;17139;52.140;11.636;2024-02-21T05:47:54;10.23;;;7.20;;
9424;SDS011;17139;52.140;11.636;2024-02-21T05:50:19;6.43;;;5.93;;
9424;SDS011;17139;52.140;11.636;2024-02-21T05:52:45;10.77;;;7.65;;
9424;SDS011;17139;52.140;11.636;2024-02-21T05:55:11;6.47;;;5.83;;
9424;SDS011;17139;52.140;11.636;2024-02-21T05:57:37;8.43;;;5.33;;
9424;SDS011;17139;52.140;11.636;2024-02-21T06:00:04;7.00;;;6.10;;
9424;SDS011;17139;52.140;11.636;2024-02-21T06:02:30;5.87;;;5.47;;
9424;SDS011;17139;52.140;11.636;2024-02-21T06:04:58;10.90;;;6.80;;
9424;SDS011;17139;52.140;11.636;2024-02-21T06:07:23;6.47;;;5.70;;
9424;SDS011;17139;52.140;11.636;2024-02-21T06:09:49;11.20;;;6.80;;
9424;SDS011;17139;52.140;11.636;2024-02-21T06:12:15;13.13;;;8.20;;
9424;SDS011;17139;52.140;11.636;2024-02-21T06:14:41;8.97;;;7.17;;
9424;SDS011;17139;52.140;11.636;2024-02-21T06:17:07;9.93;;;6.90;;
9424;SDS011;17139;52.140;11.636;2024-02-21T06:19:32;7.43;;;6.73;;
9424;SDS011;17139;52.140;11.636;2024-02-21T06:22:00;10.57;;;7.47;;
9424;SDS011;17139;52.140;11.636;2024-02-21T06:24:25;9.80;;;6.80;;
9424;SDS011;17139;52.140;11.636;2024-02-21T06:26:51;12.80;;;7.63;;
9424;SDS011;17139;52.140;11.636;2024-02-21T06:29:17;9.57;;;7.57;;
9424;SDS011;17139;52.140;11.636;2024-02-21T06:31:43;9.67;;;6.63;;
9424;SDS011;17139;52.140;11.636;2024-02-21T06:34:08;12.52;;;8.82;;
9424;SDS011;17139;52.140;11.636;2024-02-21T06:36:34;12.87;;;8.27;;
9424;SDS011;17139;52.140;11.636;2024-02-21T06:39:01;7.87;;;7.20;;
9424;SDS011;17139;52.140;11.636;2024-02-21T06:41:27;9.63;;;8.68;;
9424;SDS011;17139;52.140;11.636;2024-02-21T06:43:53;10.00;;;8.13;;
9424;SDS011;17139;52.140;11.636;2024-02-21T06:46:25;11.27;;;7.67;;
9424;SDS011;17139;52.140;11.636;2024-02-21T06:48:51;8.43;;;6.47;;
9424;SDS011;17139;52.140;11.636;2024-02-21T06:51:17;9.57;;;6.70;;
9424;SDS011;17139;52.140;11.636;2024-02-21T06:53:43;8.87;;;6.10;;
9424;SDS011;17139;52.140;11.636;2024-02-21T06:56:10;11.53;;;6.37;;
9424;SDS011;17139;52.140;11.636;2024-02-21T06:58:36;8.67;;;6.97;;
9424;SDS011;17139;52.140;11.636;2024-02-21T07:01:02;8.30;;;6.40;;
9424;SDS011;17139;52.140;11.636;2024-02-21T07:03:28;6.13;;;5.57;;
9424;SDS011;17139;52.140;11.636;2024-02-21T07:05:54;10.80;;;7.20;;
9424;SDS011;17139;52.140;11.636;2024-02-21T07:08:19;9.70;;;6.07;;
9424;SDS011;17139;52.140;11.636;2024-02-21T07:10:45;6.83;;;5.33;;
9424;SDS011;17139;52.140;11.636;2024-02-21T07:13:12;10.70;;;6.37;;
9424;SDS011;17139;52.140;11.636;2024-02-21T07:15:38;8.80;;;6.78;;
9424;SDS011;17139;52.140;11.636;2024-02-21T07:18:04;10.80;;;7.20;;
9424;SDS011;17139;52.140;11.636;2024-02-21T07:20:30;9.07;;;6.17;;
9424;SDS011;17139;52.140;11.636;2024-02-21T07:22:56;10.70;;;7.43;;
9424;SDS011;17139;52.140;11.636;2024-02-21T07:25:21;7.10;;;5.93;;
9424;SDS011;17139;52.140;11.636;2024-02-21T07:27:47;7.77;;;6.50;;
9424;SDS011;17139;52.140;11.636;2024-02-21T07:30:14;6.63;;;5.60;;
9424;SDS011;17139;52.140;11.636;2024-02-21T07:32:40;7.50;;;6.27;;
9424;SDS011;17139;52.140;11.636;2024-02-21T07:35:07;7.90;;;6.27;;
9424;SDS011;17139;52.140;11.636;2024-02-21T07:37:33;10.10;;;6.47;;
9424;SDS011;17139;52.140;11.636;2024-02-21T07:39:59;8.17;;;6.50;;
9424;SDS011;17139;52.140;11.636;2024-02-21T07:42:24;5.63;;;4.95;;
9424;SDS011;17139;52.140;11.636;2024-02-21T07:44:50;5.43;;;5.10;;
9424;SDS011;17139;52.140;11.636;2024-02-21T07:47:17;6.00;;;5.33;;
9424;SDS011;17139;52.140;11.636;2024-02-21T07:49:43;7.17;;;5.57;;
9424;SDS011;17139;52.140;11.636;2024-02-21T07:52:09;5.07;;;4.50;;
9424;SDS011;17139;52.140;11.636;2024-02-21T07:54:35;5.38;;;4.97;;
9424;SDS011;17139;52.140;11.636;2024-02-21T07:57:01;8.90;;;6.17;;
9424;SDS011;17139;52.140;11.636;2024-02-21T07:59:27;7.53;;;6.70;;
9424;SDS011;17139;52.140;11.636;2024-02-21T08:01:56;6.87;;;6.23;;
9424;SDS011;17139;52.140;11.636;2024-02-21T08:04:23;10.53;;;5.10;;
9424;SDS011;17139;52.140;11.636;2024-02-21T08:06:50;7.93;;;6.95;;
9424;SDS011;17139;52.140;11.636;2024-02-21T08:09:17;8.40;;;6.05;;
9424;SDS011;17139;52.140;11.636;2024-02-21T08:11:42;6.75;;;5.85;;
9424;SDS011;17139;52.140;11.636;2024-02-21T08:14:08;6.18;;;5.70;;
9424;SDS011;17139;52.140;11.636;2024-02-21T08:16:34;8.23;;;6.60;;
9424;SDS011;17139;52.140;11.636;2024-02-21T08:19:00;5.70;;;5.18;;
9424;SDS011;17139;52.140;11.636;2024-02-21T08:21:27;6.65;;;5.97;;
9424;SDS011;17139;52.140;11.636;2024-02-21T08:23:53;7.90;;;5.07;;
9424;SDS011;17139;52.140;11.636;2024-02-21T08:26:20;8.53;;;5.40;;
9424;SDS011;17139;52.140;11.636;2024-02-21T08:28:46;9.18;;;6.53;;
9424;SDS011;17139;52.140;11.636;2024-02-21T08:31:17;6.28;;;5.68;;
9424;SDS011;17139;52.140;11.636;2024-02-21T08:33:44;8.73;;;5.53;;
9424;SDS011;17139;52.140;11.636;2024-02-21T08:36:10;6.07;;;5.57;;
9424;SDS011;17139;52.140;11.636;2024-02-21T08:38:44;6.35;;;4.75;;
9424;SDS011;17139;52.140;11.636;2024-02-21T08:41:10;9.27;;;6.60;;
9424;SDS011;17139;52.140;11.636;2024-02-21T08:43:35;5.72;;;5.35;;
9424;SDS011;17139;52.140;11.636;2024-02-21T08:46:01;7.80;;;5.50;;
9424;SDS011;17139;52.140;11.636;2024-02-21T08:48:27;9.05;;;5.55;;
9424;SDS011;17139;52.140;11.636;2024-02-21T08:50:53;8.98;;;6.20;;
9424;SDS011;17139;52.140;11.636;2024-02-21T08:53:19;5.45;;;4.68;;
9424;SDS011;17139;52.140;11.636;2024-02-21T08:55:46;7.30;;;4.72;;
9424;SDS011;17139;52.140;11.636;2024-02-21T08:58:14;8.15;;;4.30;;
9424;SDS011;17139;52.140;11.636;2024-02-21T09:00:39;11.10;;;3.97;;
9424;SDS011;17139;52.140;11.636;2024-02-21T09:03:05;6.68;;;4.70;;
9424;SDS011;17139;52.140;11.636;2024-02-21T09:05:31;7.97;;;4.90;;
9424;SDS011;17139;52.140;11.636;2024-02-21T09:07:57;8.40;;;4.75;;
9424;SDS011;17139;52.140;11.636;2024-02-21T09:10:22;4.60;;;4.20;;
9424;SDS011;17139;52.140;11.636;2024-02-21T09:12:50;5.35;;;4.95;;
9424;SDS011;17139;52.140;11.636;2024-02-21T09:15:15;5.38;;;4.78;;
9424;SDS011;17139;52.140;11.636;2024-02-21T09:17:41;4.70;;;4.32;;
9424;SDS011;17139;52.140;11.636;2024-02-21T09:20:07;5.22;;;4.13;;
9424;SDS011;17139;52.140;11.636;2024-02-21T09:22:34;5.65;;;5.15;;
9424;SDS011;17139;52.140;11.636;2024-02-21T09:25:00;6.45;;;4.70;;
9424;SDS011;17139;52.140;11.636;2024-02-21T09:27:25;6.90;;;4.50;;
9424;SDS011;17139;52.140;11.636;2024-02-21T09:29:53;5.13;;;4.63;;
9424;SDS011;17139;52.140;11.636;2024-02-21T09:32:18;9.25;;;4.97;;
9424;SDS011;17139;52.140;11.636;2024-02-21T09:34:44;7.68;;;4.20;;
9424;SDS011;17139;52.140;11.636;2024-02-21T09:37:10;4.53;;;4.18;;
9424;SDS011;17139;52.140;11.636;2024-02-21T09:39:36;4.90;;;4.50;;
9424;SDS011;17139;52.140;11.636;2024-02-21T09:42:03;4.65;;;4.25;;
9424;SDS011;17139;52.140;11.636;2024-02-21T09:44:32;5.20;;;3.88;;
9424;SDS011;17139;52.140;11.636;2024-02-21T09:47:03;6.43;;;4.32;;
9424;SDS011;17139;52.140;11.636;2024-02-21T09:49:34;5.30;;;4.32;;
9424;SDS011;17139;52.140;11.636;2024-02-21T09:52:01;4.60;;;3.78;;
9424;SDS011;17139;52.140;11.636;2024-02-21T09:54:27;4.95;;;4.45;;
9424;SDS011;17139;52.140;11.636;2024-02-21T09:56:54;8.50;;;4.32;;
9424;SDS011;17139;52.140;11.636;2024-02-21T09:59:20;5.35;;;3.95;;
9424;SDS011;17139;52.140;11.636;2024-02-21T10:01:45;6.85;;;4.22;;
9424;SDS011;17139;52.140;11.636;2024-02-21T10:04:13;6.22;;;4.22;;
9424;SDS011;17139;52.140;11.636;2024-02-21T10:06:38;7.40;;;5.40;;
9424;SDS011;17139;52.140;11.636;2024-02-21T10:09:05;3.15;;;2.78;;
9424;SDS011;17139;52.140;11.636;2024-02-21T10:11:31;4.30;;;3.97;;
9424;SDS011;17139;52.140;11.636;2024-02-21T10:14:04;4.75;;;4.00;;
9424;SDS011;17139;52.140;11.636;2024-02-21T10:16:30;4.63;;;4.18;;
9424;SDS011;17139;52.140;11.636;2024-02-21T10:18:56;2.97;;;2.88;;
9424;SDS011;17139;52.140;11.636;2024-02-21T10:21:23;2.15;;;1.98;;
9424;SDS011;17139;52.140;11.636;2024-02-21T10:23:49;4.18;;;3.80;;
9424;SDS011;17139;52.140;11.636;2024-02-21T10:26:16;3.35;;;3.15;;
9424;SDS011;17139;52.140;11.636;2024-02-21T10:28:43;3.13;;;2.92;;
9424;SDS011;17139;52.140;11.636;2024-02-21T10:31:10;4.30;;;3.45;;
9424;SDS011;17139;52.140;11.636;2024-02-21T10:33:37;3.83;;;3.45;;
9424;SDS011;17139;52.140;11.636;2024-02-21T10:36:06;5.65;;;1.80;;
9424;SDS011;17139;52.140;11.636;2024-02-21T10:38:34;6.35;;;3.53;;
9424;SDS011;17139;52.140;11.636;2024-02-21T10:41:01;4.70;;;3.13;;
9424;SDS011;17139;52.140;11.636;2024-02-21T10:43:29;3.30;;;3.10;;
9424;SDS011;17139;52.140;11.636;2024-02-21T10:45:59;3.30;;;3.00;;
9424;SDS011;17139;52.140;11.636;2024-02-21T10:48:28;3.05;;;1.92;;
9424;SDS011;17139;52.140;11.636;2024-02-21T10:51:02;4.10;;;2.85;;
9424;SDS011;17139;52.140;11.636;2024-02-21T10:53:39;3.38;;;3.13;;
9424;SDS011;17139;52.140;11.636;2024-02-21T10:56:11;2.47;;;2.28;;
9424;SDS011;17139;52.140;11.636;2024-02-21T10:58:46;4.40;;;4.00;;
9424;SDS011;17139;52.140;11.636;2024-02-21T11:01:13;3.30;;;3.10;;
9424;SDS011;17139;52.140;11.636;2024-02-21T11:03:39;4.40;;;2.35;;
9424;SDS011;17139;52.140;11.636;2024-02-21T11:06:06;4.22;;;3.35;;
9424;SDS011;17139;52.140;11.636;2024-02-21T11:08:34;3.28;;;2.58;;
9424;SDS011;17139;52.140;11.636;2024-02-21T11:11:01;4.75;;;3.08;;
9424;SDS011;17139;52.140;11.636;2024-02-21T11:13:30;5.45;;;3.10;;
9424;SDS011;17139;52.140;11.636;2024-02-21T11:16:05;2.85;;;2.65;;
9424;SDS011;17139;52.140;11.636;2024-02-21T11:18:32;3.70;;;2.95;;
9424;SDS011;17139;52.140;11.636;2024-02-21T11:20:57;3.00;;;2.80;;
9424;SDS011;17139;52.140;11.636;2024-02-21T11:23:24;4.70;;;2.97;;
9424;SDS011;17139;52.140;11.636;2024-02-21T11:25:50;3.25;;;2.95;;
9424;SDS011;17139;52.140;11.636;2024-02-21T11:28:24;3.45;;;3.17;;
9424;SDS011;17139;52.140;11.636;2024-02-21T11:30:50;6.50;;;2.92;;
9424;SDS011;17139;52.140;11.636;2024-02-21T11:33:16;6.15;;;3.88;;
9424;SDS011;17139;52.140;11.636;2024-02-21T11:35:42;3.55;;;3.20;;
9424;SDS011;17139;52.140;11.636;2024-02-21T11:38:09;5.20;;;2.85;;
9424;SDS011;17139;52.140;11.636;2024-02-21T11:40:38;6.38;;;3.35;;
9424;SDS011;17139;52.140;11.636;2024-02-21T11:43:04;4.10;;;3.28;;
9424;SDS011;17139;52.140;11.636;2024-02-21T11:45:31;5.82;;;3.97;;
9424;SDS011;17139;52.140;11.636;2024-02-21T11:47:57;4.80;;;3.78;;
9424;SDS011;17139;52.140;11.636;2024-02-21T11:50:23;3.78;;;3.47;;
9424;SDS011;17139;52.140;11.636;2024-02-21T11:52:48;3.33;;;3.08;;
9424;SDS011;17139;52.140;11.636;2024-02-21T11:55:14;4.50;;;3.28;;
9424;SDS011;17139;52.140;11.636;2024-02-21T11:57:40;2.83;;;2.40;;
9424;SDS011;17139;52.140;11.636;2024-02-21T12:00:13;4.05;;;3.35;;
9424;SDS011;17139;52.140;11.636;2024-02-21T12:02:41;2.88;;;2.67;;
9424;SDS011;17139;52.140;11.636;2024-02-21T12:05:07;7.18;;;4.55;;
9424;SDS011;17139;52.140;11.636;2024-02-21T12:07:36;4.15;;;3.58;;
9424;SDS011;17139;52.140;11.636;2024-02-21T12:10:01;4.47;;;3.47;;
9424;SDS011;17139;52.140;11.636;2024-02-21T12:12:27;3.53;;;3.28;;
9424;SDS011;17139;52.140;11.636;2024-02-21T12:14:54;3.15;;;2.92;;
9424;SDS011;17139;52.140;11.636;2024-02-21T12:17:21;6.03;;;3.67;;
9424;SDS011;17139;52.140;11.636;2024-02-21T12:19:48;4.50;;;3.60;;
9424;SDS011;17139;52.140;11.636;2024-02-21T12:22:16;3.97;;;3.63;;
9424;SDS011;17139;52.140;11.636;2024-02-21T12:24:43;4.47;;;3.22;;
9424;SDS011;17139;52.140;11.636;2024-02-21T12:27:08;7.35;;;3.90;;
9424;SDS011;17139;52.140;11.636;2024-02-21T12:29:34;5.38;;;3.45;;
9424;SDS011;17139;52.140;11.636;2024-02-21T12:32:00;3.97;;;3.58;;
9424;SDS011;17139;52.140;11.636;2024-02-21T12:34:26;3.92;;;3.63;;
9424;SDS011;17139;52.140;11.636;2024-02-21T12:36:53;5.53;;;3.75;;
9424;SDS011;17139;52.140;11.636;2024-02-21T12:39:19;5.82;;;3.58;;
9424;SDS011;17139;52.140;11.636;2024-02-21T12:41:45;6.57;;;4.10;;
9424;SDS011;17139;52.140;11.636;2024-02-21T12:44:10;5.70;;;3.85;;
9424;SDS011;17139;52.140;11.636;2024-02-21T12:46:36;6.75;;;4.40;;
9424;SDS011;17139;52.140;11.636;2024-02-21T12:49:02;3.90;;;3.60;;
9424;SDS011;17139;52.140;11.636;2024-02-21T12:51:29;3.92;;;3.20;;
9424;SDS011;17139;52.140;11.636;2024-02-21T12:53:56;3.70;;;3.40;;
9424;SDS011;17139;52.140;11.636;2024-02-21T12:56:22;6.95;;;3.47;;
9424;SDS011;17139;52.140;11.636;2024-02-21T12:58:48;3.65;;;3.35;;
9424;SDS011;17139;52.140;11.636;2024-02-21T13:01:14;6.00;;;3.42;;
9424;SDS011;17139;52.140;11.636;2024-02-21T13:03:40;3.20;;;3.05;;
9424;SDS011;17139;52.140;11.636;2024-02-21T13:06:06;3.85;;;3.58;;
9424;SDS011;17139;52.140;11.636;2024-02-21T13:08:32;3.45;;;3.25;;
9424;SDS011;17139;52.140;11.636;2024-02-21T13:10:59;4.55;;;3.85;;
9424;SDS011;17139;52.140;11.636;2024-02-21T13:13:25;4.60;;;4.13;;
9424;SDS011;17139;52.140;11.636;2024-02-21T13:15:50;4.85;;;3.60;;
9424;SDS011;17139;52.140;11.636;2024-02-21T13:18:16;7.80;;;3.30;;
9424;SDS011;17139;52.140;11.636;2024-02-21T13:20:42;10.55;;;3.15;;
9424;SDS011;17139;52.140;11.636;2024-02-21T13:23:08;5.40;;;3.72;;
9424;SDS011;17139;52.140;11.636;2024-02-21T13:25:34;3.17;;;3.03;;
9424;SDS011;17139;52.140;11.636;2024-02-21T13:28:01;6.97;;;3.03;;
9424;SDS011;17139;52.140;11.636;2024-02-21T13:30:27;4.82;;;3.58;;
9424;SDS011;17139;52.140;11.636;2024-02-21T13:32:53;6.55;;;3.30;;
9424;SDS011;17139;52.140;11.636;2024-02-21T13:35:18;3.15;;;2.85;;
9424;SDS011;17139;52.140;11.636;2024-02-21T13:37:44;3.35;;;2.90;;
9424;SDS011;17139;52.140;11.636;2024-02-21T13:40:10;3.08;;;2.50;;
9424;SDS011;17139;52.140;11.636;2024-02-21T13:42:36;4.32;;;2.60;;
9424;SDS011;17139;52.140;11.636;2024-02-21T13:45:04;3.40;;;2.47;;
9424;SDS011;17139;52.140;11.636;2024-02-21T13:47:31;6.03;;;3.60;;
9424;SDS011;17139;52.140;11.636;2024-02-21T13:49:56;3.38;;;2.85;;
9424;SDS011;17139;52.140;11.636;2024-02-21T13:52:22;3.60;;;2.83;;
9424;SDS011;17139;52.140;11.636;2024-02-21T13:54:48;2.77;;;2.57;;
9424;SDS011;17139;52.140;11.636;2024-02-21T13:57:14;2.55;;;2.30;;
9424;SDS011;17139;52.140;11.636;2024-02-21T13:59:40;2.67;;;2.50;;
9424;SDS011;17139;52.140;11.636;2024-02-21T14:02:07;5.88;;;3.17;;
9424;SDS011;17139;52.140;11.636;2024-02-21T14:04:33;4.53;;;2.80;;
9424;SDS011;17139;52.140;11.636;2024-02-21T14:06:59;3.85;;;2.53;;
9424;SDS011;17139;52.140;11.636;2024-02-21T14:09:25;2.60;;;2.50;;
9424;SDS011;17139;52.140;11.636;2024-02-21T14:11:51;2.42;;;2.22;;
9424;SDS011;17139;52.140;11.636;2024-02-21T14:14:29;2.70;;;2.50;;
9424;SDS011;17139;52.140;11.636;2024-02-21T14:16:55;4.07;;;2.70;;
9424;SDS011;17139;52.140;11.636;2024-02-21T14:19:22;4.93;;;2.70;;
9424;SDS011;17139;52.140;11.636;2024-02-21T14:21:48;3.35;;;2.10;;
9424;SDS011;17139;52.140;11.636;2024-02-21T14:24:13;3.20;;;2.17;;
9424;SDS011;17139;52.140;11.636;2024-02-21T14:26:39;4.10;;;2.73;;
9424;SDS011;17139;52.140;11.636;2024-02-21T14:29:05;3.85;;;2.45;;
9424;SDS011;17139;52.140;11.636;2024-02-21T14:31:31;2.03;;;1.90;;
9424;SDS011;17139;52.140;11.636;2024-02-21T14:33:57;2.95;;;2.58;;
9424;SDS011;17139;52.140;11.636;2024-02-21T14:36:24;5.20;;;2.25;;
9424;SDS011;17139;52.140;11.636;2024-02-21T14:38:51;2.03;;;1.92;;
9424;SDS011;17139;52.140;11.636;2024-02-21T14:41:17;4.13;;;2.10;;